createdAt,value
2018-06-05T00:00:41.792Z,95.40
2018-06-05T00:03:13.318Z,95.60
2018-06-05T00:05:44.792Z,95.60
2018-06-05T00:08:16.692Z,95.50
2018-06-05T00:10:47.963Z,95.70
2018-06-05T00:13:19.294Z,95.80
2018-06-05T00:15:51.265Z,95.60
2018-06-05T00:18:22.525Z,96.00
2018-06-05T00:20:53.840Z,95.40
2018-06-05T00:23:25.290Z,96.20
2018-06-05T00:25:56.763Z,95.90
2018-06-05T00:28:27.894Z,96.40
2018-06-05T00:30:59.283Z,96.10
2018-06-05T00:33:30.535Z,96.00
2018-06-05T00:36:01.831Z,95.90
2018-06-05T00:38:32.939Z,96.20
2018-06-05T00:41:04.859Z,96.60
2018-06-05T00:43:36.252Z,96.70
2018-06-05T00:46:07.631Z,96.60
2018-06-05T00:48:38.980Z,96.30
2018-06-05T00:51:26.292Z,96.20
2018-06-05T00:53:57.495Z,96.70
2018-06-05T00:56:28.696Z,96.90
2018-06-05T00:59:00.088Z,96.80
2018-06-05T01:01:31.480Z,97.30
2018-06-05T01:04:02.998Z,97.30
2018-06-05T01:06:34.608Z,97.30
2018-06-05T01:09:07.828Z,97.50
2018-06-05T01:11:39.280Z,97.50
2018-06-05T01:14:10.603Z,97.30
2018-06-05T01:16:41.801Z,97.40
2018-06-05T01:19:12.809Z,97.50
2018-06-05T01:21:44.028Z,97.40
2018-06-05T01:24:15.459Z,97.50
2018-06-05T01:26:47.008Z,97.40
2018-06-05T01:29:18.683Z,97.50
2018-06-05T01:31:50.632Z,97.90
2018-06-05T01:34:22.070Z,98.10
2018-06-05T01:36:53.374Z,98.10
2018-06-05T01:39:24.638Z,98.20
2018-06-05T01:41:55.797Z,98.20
2018-06-05T01:44:26.952Z,98.20
2018-06-05T01:46:58.311Z,98.40
2018-06-05T01:49:34.773Z,98.60
2018-06-05T01:52:06.360Z,98.70
2018-06-05T01:57:07.998Z,98.70
2018-06-05T01:59:39.121Z,98.80
2018-06-05T02:02:10.555Z,98.70
2018-06-05T02:04:42.165Z,98.70
2018-06-05T02:07:13.408Z,98.70
2018-06-05T02:09:44.713Z,98.70
2018-06-05T02:12:16.217Z,98.90
2018-06-05T02:14:47.670Z,98.80
2018-06-05T02:17:19.065Z,98.80
2018-06-05T02:19:50.256Z,98.80
2018-06-05T02:22:21.730Z,98.70
2018-06-05T02:24:53.238Z,99.10
2018-06-05T02:27:24.838Z,99.40
2018-06-05T02:29:56.353Z,99.20
2018-06-05T02:32:27.429Z,99.10
2018-06-05T02:34:58.616Z,99.40
2018-06-05T02:37:29.842Z,99.20
2018-06-05T02:40:01.136Z,99.40
2018-06-05T02:42:32.296Z,99.30
2018-06-05T02:45:03.674Z,99.60
2018-06-05T02:47:35.188Z,99.70
2018-06-05T02:50:06.687Z,99.80
2018-06-05T02:52:38.051Z,99.90
2018-06-05T02:55:10.131Z,99.90
2018-06-05T02:57:41.566Z,99.90
2018-06-05T03:00:12.759Z,99.90
2018-06-05T03:02:44.072Z,99.90
2018-06-05T03:05:15.388Z,99.90
2018-06-05T03:07:46.539Z,99.80
2018-06-05T03:10:18.154Z,99.90
2018-06-05T03:12:49.463Z,99.90
2018-06-05T03:15:20.868Z,99.90
2018-06-05T03:17:52.375Z,99.90
2018-06-05T03:20:23.922Z,99.90
2018-06-05T03:22:55.115Z,99.90
2018-06-05T03:25:26.313Z,99.90
2018-06-05T03:27:57.809Z,99.90
2018-06-05T03:30:28.878Z,99.90
2018-06-05T03:33:00.111Z,99.90
2018-06-05T03:35:31.888Z,99.90
2018-06-05T03:38:03.523Z,99.90
2018-06-05T03:40:35.187Z,99.90
2018-06-05T03:43:06.900Z,99.90
2018-06-05T03:45:37.984Z,99.70
2018-06-05T03:48:09.980Z,99.80
2018-06-05T03:50:41.348Z,99.50
2018-06-05T03:55:43.472Z,98.70
2018-06-05T03:58:15.168Z,98.40
2018-06-05T04:00:46.519Z,98.70
2018-06-05T04:03:17.935Z,98.60
2018-06-05T04:05:49.651Z,98.30
2018-06-05T04:08:21.131Z,98.20
2018-06-05T04:10:52.321Z,98.20
2018-06-05T04:13:23.390Z,97.70
2018-06-05T04:15:54.724Z,97.90
2018-06-05T04:18:25.859Z,98.00
2018-06-05T04:20:57.674Z,97.40
2018-06-05T04:23:29.079Z,97.60
2018-06-05T04:26:00.177Z,97.40
2018-06-05T04:28:31.576Z,96.80
2018-06-05T04:31:02.744Z,96.50
2018-06-05T04:33:34.851Z,96.40
2018-06-05T04:36:06.174Z,96.00
2018-06-05T04:38:37.461Z,95.50
2018-06-05T04:41:08.744Z,95.60
2018-06-05T04:43:40.379Z,95.40
2018-06-05T04:46:11.832Z,95.40
2018-06-05T04:51:14.177Z,94.10
2018-06-05T04:53:45.828Z,93.70
2018-06-05T04:56:17.291Z,93.70
2018-06-05T04:58:48.451Z,93.60
2018-06-05T05:01:20.286Z,93.90
2018-06-05T05:03:51.523Z,93.50
2018-06-05T05:06:22.999Z,93.60
2018-06-05T05:08:54.130Z,93.90
2018-06-05T05:11:25.741Z,93.80
2018-06-05T05:13:57.286Z,92.70
2018-06-05T05:16:28.543Z,92.30
2018-06-05T05:18:59.844Z,92.20
2018-06-05T05:21:31.052Z,91.70
2018-06-05T05:24:02.495Z,92.00
2018-06-05T05:26:33.985Z,92.00
2018-06-05T05:29:05.927Z,91.80
2018-06-05T05:31:37.274Z,91.50
2018-06-05T05:34:08.975Z,91.30
2018-06-05T05:36:40.399Z,90.60
2018-06-05T05:39:12.524Z,90.50
2018-06-05T05:41:44.079Z,90.90
2018-06-05T05:44:15.743Z,91.00
2018-06-05T05:46:47.096Z,90.70
2018-06-05T05:49:18.555Z,90.40
2018-06-05T05:51:49.951Z,91.10
2018-06-05T05:54:21.245Z,90.90
2018-06-05T05:56:52.715Z,90.10
2018-06-05T05:59:25.034Z,90.00
2018-06-05T06:01:56.486Z,90.50
2018-06-05T06:04:27.856Z,89.90
2018-06-05T06:06:59.131Z,89.00
2018-06-05T06:09:30.828Z,88.40
2018-06-05T06:12:02.139Z,88.00
2018-06-05T06:14:33.718Z,87.40
2018-06-05T06:17:05.019Z,87.80
2018-06-05T06:19:36.333Z,86.80
2018-06-05T06:22:07.818Z,88.30
2018-06-05T06:24:39.614Z,87.50
2018-06-05T06:27:10.733Z,86.10
2018-06-05T06:29:42.033Z,85.30
2018-06-05T06:32:13.404Z,85.00
2018-06-05T06:34:44.795Z,83.70
2018-06-05T06:37:16.187Z,82.80
2018-06-05T06:39:47.764Z,82.00
2018-06-05T06:42:19.251Z,80.90
2018-06-05T06:44:50.583Z,81.20
2018-06-05T06:47:21.807Z,81.00
2018-06-05T06:49:53.088Z,81.10
2018-06-05T06:52:24.645Z,79.20
2018-06-05T06:54:56.195Z,78.50
2018-06-05T06:57:27.627Z,76.90
2018-06-05T06:59:59.488Z,75.10
2018-06-05T07:02:30.948Z,75.30
2018-06-05T07:05:02.315Z,76.70
2018-06-05T07:07:33.722Z,77.20
2018-06-05T07:10:05.337Z,77.30
2018-06-05T07:12:36.776Z,76.10
2018-06-05T07:15:08.746Z,77.10
2018-06-05T07:17:39.875Z,76.60
2018-06-05T07:25:12.909Z,77.50
2018-06-05T07:30:14.836Z,75.20
2018-06-05T07:32:46.119Z,74.20
2018-06-05T07:35:17.479Z,73.60
2018-06-05T07:37:48.783Z,74.00
2018-06-05T07:40:20.085Z,74.40
2018-06-05T07:42:51.315Z,72.50
2018-06-05T07:45:22.536Z,71.60
2018-06-05T07:47:53.755Z,70.30
2018-06-05T07:50:25.090Z,69.80
2018-06-05T07:52:56.588Z,67.80
2018-06-05T07:55:27.979Z,67.40
2018-06-05T07:57:59.450Z,65.80
2018-06-05T08:00:30.723Z,65.20
2018-06-05T08:03:02.704Z,66.10
2018-06-05T08:05:33.855Z,68.00
2018-06-05T08:08:05.611Z,66.80
2018-06-05T08:13:07.639Z,66.60
2018-06-05T08:15:38.940Z,67.60
2018-06-05T08:18:10.448Z,67.80
2018-06-05T08:20:41.673Z,66.90
2018-06-05T08:23:12.960Z,67.10
2018-06-05T08:25:44.263Z,65.90
2018-06-05T08:28:15.402Z,64.90
2018-06-05T08:30:46.503Z,64.40
2018-06-05T08:33:17.747Z,64.10
2018-06-05T08:35:49.151Z,64.90
2018-06-05T08:38:20.429Z,63.40
2018-06-05T08:40:51.699Z,62.90
2018-06-05T08:43:22.831Z,62.70
2018-06-05T08:45:53.936Z,61.30
2018-06-05T08:48:25.344Z,58.60
2018-06-05T08:50:56.492Z,58.30
2018-06-05T08:53:27.718Z,57.10
2018-06-05T08:55:59.125Z,55.50
2018-06-05T08:58:31.332Z,53.70
2018-06-05T09:01:02.426Z,56.80
2018-06-05T09:03:33.830Z,57.00
2018-06-05T09:06:04.953Z,60.20
2018-06-05T09:08:36.240Z,60.50
2018-06-05T09:13:39.019Z,59.70
2018-06-05T09:16:10.344Z,60.30
2018-06-05T09:18:41.684Z,61.30
2018-06-05T09:21:13.131Z,61.00
2018-06-05T09:23:44.285Z,61.20
2018-06-05T09:26:15.728Z,60.40
2018-06-05T09:28:46.909Z,60.90
2018-06-05T09:31:18.680Z,61.30
2018-06-05T09:33:49.857Z,61.50
2018-06-05T09:36:21.935Z,60.50
2018-06-05T09:38:53.236Z,60.10
2018-06-05T09:41:24.631Z,61.20
2018-06-05T09:43:55.915Z,60.20
2018-06-05T09:46:27.157Z,62.10
2018-06-05T09:48:58.524Z,61.80
2018-06-05T09:51:29.662Z,60.80
2018-06-05T09:56:31.815Z,62.50
2018-06-05T09:59:02.947Z,61.80
2018-06-05T10:01:34.311Z,61.80
2018-06-05T10:04:05.541Z,59.90
2018-06-05T10:06:36.816Z,61.80
2018-06-05T10:09:08.897Z,63.20
2018-06-05T10:11:40.100Z,65.50
2018-06-05T10:14:11.216Z,64.70
2018-06-05T10:16:42.584Z,68.90
2018-06-05T10:19:13.782Z,73.00
2018-06-05T10:21:45.903Z,74.20
2018-06-05T10:24:17.467Z,74.70
2018-06-05T10:26:49.341Z,73.60
2018-06-05T10:29:20.798Z,73.20
2018-06-05T10:31:51.944Z,71.40
2018-06-05T10:34:23.074Z,72.30
2018-06-05T10:36:54.537Z,73.40
2018-06-05T10:39:26.060Z,76.20
2018-06-05T10:41:57.628Z,75.60
2018-06-05T10:44:28.973Z,76.90
2018-06-05T10:47:00.191Z,80.20
2018-06-05T10:49:31.483Z,80.00
2018-06-05T10:52:03.378Z,81.20
2018-06-05T10:54:35.056Z,82.00
2018-06-05T10:57:06.576Z,81.80
2018-06-05T10:59:37.855Z,82.50
2018-06-05T11:02:09.269Z,83.10
2018-06-05T11:04:40.381Z,81.90
2018-06-05T11:07:11.799Z,81.20
2018-06-05T11:09:43.136Z,77.80
2018-06-05T11:12:14.402Z,77.90
2018-06-05T11:14:45.960Z,79.70
2018-06-05T11:17:17.321Z,78.20
2018-06-05T11:22:20.016Z,78.60
2018-06-05T11:24:51.199Z,78.60
2018-06-05T11:27:22.596Z,79.40
2018-06-05T11:29:54.028Z,79.40
2018-06-05T11:32:25.585Z,78.30
2018-06-05T11:34:57.163Z,76.90
2018-06-05T11:37:28.558Z,76.60
2018-06-05T11:39:59.839Z,78.80
2018-06-05T11:42:31.344Z,80.20
2018-06-05T11:45:02.611Z,79.90
2018-06-05T11:47:34.066Z,79.50
2018-06-05T11:50:05.240Z,79.50
2018-06-05T11:52:37.003Z,78.20
2018-06-05T11:55:08.642Z,78.50
2018-06-05T11:57:40.692Z,78.80
2018-06-05T12:00:12.808Z,79.50
2018-06-05T12:02:44.168Z,79.40
2018-06-05T12:05:15.480Z,79.60
2018-06-05T12:07:47.622Z,80.30
2018-06-05T12:10:19.107Z,81.40
2018-06-05T12:12:50.347Z,82.30
2018-06-05T12:15:22.805Z,81.10
2018-06-05T12:17:55.422Z,81.10
2018-06-05T12:20:27.602Z,80.80
2018-06-05T12:22:58.815Z,79.10
2018-06-05T12:25:30.148Z,79.00
2018-06-05T12:28:01.424Z,78.50
2018-06-05T12:30:32.903Z,77.80
2018-06-05T12:33:04.332Z,78.40
2018-06-05T12:38:06.421Z,81.60
2018-06-05T12:40:37.569Z,81.80
2018-06-05T12:43:09.348Z,82.10
2018-06-05T12:45:40.660Z,81.10
2018-06-05T12:48:12.056Z,81.50
2018-06-05T12:50:43.523Z,83.70
2018-06-05T12:53:15.088Z,81.30
2018-06-05T12:55:46.242Z,83.50
2018-06-05T12:58:18.309Z,85.20
2018-06-05T13:00:49.560Z,86.20
2018-06-05T13:03:20.896Z,84.60
2018-06-05T13:05:52.216Z,83.70
2018-06-05T13:08:23.367Z,84.10
2018-06-05T13:10:54.836Z,85.10
2018-06-05T13:13:26.228Z,85.20
2018-06-05T13:15:57.492Z,83.50
2018-06-05T13:18:28.869Z,84.00
2018-06-05T13:21:00.386Z,82.70
2018-06-05T13:23:31.887Z,83.10
2018-06-05T13:26:03.781Z,83.00
2018-06-05T13:28:35.186Z,83.50
2018-06-05T13:31:06.425Z,83.40
2018-06-05T13:33:37.917Z,83.40
2018-06-05T13:36:09.783Z,79.60
2018-06-05T13:38:41.158Z,76.50
2018-06-05T13:41:13.196Z,76.20
2018-06-05T13:46:15.444Z,76.60
2018-06-05T13:48:46.783Z,77.30
2018-06-05T13:51:18.108Z,76.30
2018-06-05T13:53:49.388Z,76.40
2018-06-05T13:56:21.045Z,74.70
2018-06-05T14:01:23.021Z,75.00
2018-06-05T14:03:54.251Z,74.20
2018-06-05T14:06:25.877Z,72.60
2018-06-05T14:08:57.490Z,74.90
2018-06-05T14:11:28.732Z,77.00
2018-06-05T14:14:00.127Z,77.40
2018-06-05T14:16:31.753Z,77.90
2018-06-05T14:19:06.898Z,77.20
2018-06-05T14:21:38.575Z,77.50
2018-06-05T14:24:11.008Z,77.10
2018-06-05T14:26:42.814Z,77.20
2018-06-05T14:29:14.344Z,76.70
2018-06-05T14:31:46.413Z,78.40
2018-06-05T14:34:17.926Z,78.80
2018-06-05T14:36:55.315Z,77.60
2018-06-05T14:39:27.099Z,76.20
2018-06-05T14:44:28.867Z,76.30
2018-06-05T14:47:00.102Z,75.40
2018-06-05T14:49:31.535Z,74.80
2018-06-05T14:52:02.975Z,74.20
2018-06-05T14:54:34.414Z,73.10
2018-06-05T14:57:05.839Z,74.10
2018-06-05T14:59:37.251Z,74.00
2018-06-05T15:02:08.575Z,74.00
2018-06-05T15:04:39.932Z,74.40
2018-06-05T15:07:11.292Z,76.40
2018-06-05T15:09:42.495Z,78.70
2018-06-05T15:12:14.033Z,80.40
2018-06-05T15:14:45.421Z,80.90
2018-06-05T15:17:17.151Z,80.40
2018-06-05T15:19:48.576Z,81.00
2018-06-05T15:22:20.650Z,82.50
2018-06-05T15:25:02.394Z,83.70
2018-06-05T15:27:36.923Z,84.20
2018-06-05T15:30:08.404Z,84.80
2018-06-05T15:32:39.503Z,85.00
2018-06-05T15:35:11.391Z,84.80
2018-06-05T15:37:42.775Z,84.00
2018-06-05T15:40:14.122Z,84.00
2018-06-05T15:42:45.459Z,83.90
2018-06-05T15:45:16.563Z,83.00
2018-06-05T15:47:47.808Z,83.30
2018-06-05T15:50:19.590Z,81.10
2018-06-05T15:52:50.517Z,79.50
2018-06-05T15:55:21.777Z,79.70
2018-06-05T15:57:53.933Z,79.30
2018-06-05T16:00:25.212Z,79.50
2018-06-05T16:02:56.515Z,79.40
2018-06-05T16:05:27.882Z,79.20
2018-06-05T16:07:59.801Z,79.90
2018-06-05T16:10:31.568Z,80.20
2018-06-05T16:13:02.637Z,80.20
2018-06-05T16:15:33.717Z,80.20
2018-06-05T16:18:04.983Z,80.40
2018-06-05T16:20:36.354Z,80.40
2018-06-05T16:25:38.743Z,80.40
2018-06-05T16:28:10.048Z,82.40
2018-06-05T16:30:41.443Z,83.10
2018-06-05T16:33:12.807Z,83.60
2018-06-05T16:35:43.957Z,82.80
2018-06-05T16:38:15.370Z,83.30
2018-06-05T16:40:46.853Z,82.80
2018-06-05T16:43:18.115Z,82.30
2018-06-05T16:45:50.327Z,81.90
2018-06-05T16:48:22.084Z,82.20
2018-06-05T16:50:53.521Z,82.60
2018-06-05T16:53:24.903Z,82.50
2018-06-05T16:55:56.634Z,82.40
2018-06-05T16:58:28.415Z,83.10
2018-06-05T17:00:59.736Z,83.10
2018-06-05T17:03:31.104Z,82.50
2018-06-05T17:06:02.584Z,81.80
2018-06-05T17:08:34.272Z,81.70
2018-06-05T17:11:05.974Z,81.50
2018-06-05T17:13:37.616Z,81.70
2018-06-05T17:16:09.243Z,81.80
2018-06-05T17:18:40.533Z,82.20
2018-06-05T17:21:12.217Z,82.70
2018-06-05T17:23:44.086Z,83.30
2018-06-05T17:26:15.424Z,83.60
2018-06-05T17:28:47.708Z,84.80
2018-06-05T17:31:19.017Z,85.80
2018-06-05T17:33:50.491Z,85.60
2018-06-05T17:36:22.180Z,86.60
2018-06-05T17:38:53.481Z,86.20
2018-06-05T17:41:25.254Z,86.20
2018-06-05T17:43:57.096Z,86.40
2018-06-05T17:46:28.746Z,87.60
2018-06-05T17:51:31.339Z,87.10
2018-06-05T17:54:03.365Z,87.20
2018-06-05T17:56:35.156Z,87.30
2018-06-05T18:01:37.796Z,87.70
2018-06-05T18:04:09.587Z,87.30
2018-06-05T18:06:41.236Z,88.80
2018-06-05T18:09:13.792Z,88.70
2018-06-05T18:11:46.177Z,88.90
2018-06-05T18:14:18.094Z,88.30
2018-06-05T18:16:50.053Z,88.10
2018-06-05T18:19:21.544Z,87.60
2018-06-05T18:21:53.060Z,87.40
2018-06-05T18:26:57.514Z,88.80
2018-06-05T18:29:29.813Z,89.50
2018-06-05T18:32:01.889Z,90.00
2018-06-05T18:34:33.448Z,90.30
2018-06-05T18:37:05.938Z,89.70
2018-06-05T18:39:37.260Z,90.10
2018-06-05T18:42:08.700Z,90.00
2018-06-05T18:44:41.192Z,90.50
2018-06-05T18:47:13.431Z,90.50
2018-06-05T18:49:45.940Z,90.50
2018-06-05T18:52:17.460Z,90.70
2018-06-05T18:54:49.399Z,90.70
2018-06-05T18:57:21.478Z,90.70
2018-06-05T18:59:53.565Z,90.10
2018-06-05T19:02:26.263Z,90.20
2018-06-05T19:07:30.272Z,90.00
2018-06-05T19:10:02.621Z,90.30
2018-06-05T19:12:34.511Z,89.30
2018-06-05T19:15:06.477Z,90.00
2018-06-05T19:17:38.331Z,90.30
2018-06-05T19:22:40.891Z,90.70
2018-06-05T19:25:12.841Z,91.00
2018-06-05T19:27:44.097Z,91.40
2018-06-05T19:30:16.097Z,91.80
2018-06-05T19:32:49.108Z,91.90
2018-06-05T19:35:20.928Z,92.00
2018-06-05T19:37:52.734Z,91.30
2018-06-05T19:40:25.065Z,91.60
2018-06-05T19:42:56.576Z,91.30
2018-06-05T19:45:27.812Z,90.70
2018-06-05T19:48:00.125Z,90.60
2018-06-05T19:50:31.995Z,90.70
2018-06-05T19:53:03.935Z,90.80
2018-06-05T19:55:35.572Z,90.90
2018-06-05T19:58:07.482Z,91.00
2018-06-05T20:03:11.137Z,91.20
2018-06-05T20:05:43.040Z,91.40
2018-06-05T20:08:15.599Z,91.60
2018-06-05T20:10:46.919Z,91.60
2018-06-05T20:13:19.139Z,91.60
2018-06-05T20:15:50.859Z,91.90
2018-06-05T20:18:22.727Z,91.90
2018-06-05T20:20:54.060Z,92.20
2018-06-05T20:23:25.377Z,91.90
2018-06-05T20:25:56.848Z,91.90
2018-06-05T20:28:28.597Z,91.80
2018-06-05T20:31:00.254Z,91.90
2018-06-05T20:33:32.142Z,91.80
2018-06-05T20:36:03.619Z,91.80
2018-06-05T20:38:35.148Z,92.00
2018-06-05T20:41:06.941Z,91.80
2018-06-05T20:43:38.521Z,91.90
2018-06-05T20:46:10.551Z,91.70
2018-06-05T20:48:42.202Z,92.20
2018-06-05T20:51:14.333Z,92.10
2018-06-05T20:53:45.795Z,92.10
2018-06-05T20:56:16.940Z,92.10
2018-06-05T20:58:48.655Z,92.30
2018-06-05T21:01:20.446Z,92.10
2018-06-05T21:03:52.361Z,92.00
2018-06-05T21:06:23.878Z,92.20
2018-06-05T21:08:55.304Z,92.40
2018-06-05T21:11:26.741Z,92.40
2018-06-05T21:13:58.333Z,92.40
2018-06-05T21:16:29.985Z,92.40
2018-06-05T21:19:01.572Z,92.30
2018-06-05T21:21:33.094Z,92.40
2018-06-05T21:24:04.826Z,92.20
2018-06-05T21:29:08.554Z,91.90
2018-06-05T21:31:40.124Z,92.10
2018-06-05T21:34:11.546Z,92.10
2018-06-05T21:36:43.408Z,92.20
2018-06-05T21:39:15.527Z,92.80
2018-06-05T21:41:47.141Z,92.50
2018-06-05T21:44:19.557Z,92.30
2018-06-05T21:46:51.514Z,92.40
2018-06-05T21:49:23.034Z,92.50
2018-06-05T21:51:54.713Z,92.70
2018-06-05T21:54:26.732Z,92.50
2018-06-05T21:56:58.572Z,92.40
2018-06-05T21:59:30.145Z,92.50
2018-06-05T22:02:01.786Z,92.60
2018-06-05T22:04:33.328Z,92.80
2018-06-05T22:07:04.925Z,92.80
2018-06-05T22:09:36.054Z,92.90
2018-06-05T22:12:07.415Z,92.90
2018-06-05T22:14:39.275Z,93.10
2018-06-05T22:17:10.662Z,92.80
2018-06-05T22:19:42.306Z,93.00
2018-06-05T22:22:13.921Z,93.20
2018-06-05T22:24:45.651Z,93.60
2018-06-05T22:27:17.283Z,93.30
2018-06-05T22:29:48.501Z,92.60
2018-06-05T22:32:19.999Z,92.50
2018-06-05T22:34:51.754Z,92.70
2018-06-05T22:37:23.253Z,92.60
2018-06-05T22:39:54.667Z,92.20
2018-06-05T22:42:26.135Z,92.60
2018-06-05T22:47:28.993Z,92.30
2018-06-05T22:50:00.425Z,92.10
2018-06-05T22:52:31.828Z,92.10
2018-06-05T22:55:03.224Z,92.20
2018-06-05T22:57:34.672Z,92.10
2018-06-05T23:00:06.259Z,92.10
2018-06-05T23:02:37.780Z,92.00
2018-06-05T23:05:09.629Z,92.20
2018-06-05T23:07:40.920Z,92.00
2018-06-05T23:10:12.510Z,92.10
2018-06-05T23:12:43.945Z,92.40
2018-06-05T23:15:15.605Z,92.40
2018-06-05T23:17:48.735Z,92.40
2018-06-05T23:20:20.795Z,92.80
2018-06-05T23:22:52.261Z,92.40
2018-06-05T23:25:23.841Z,92.50
2018-06-05T23:27:55.368Z,92.70
2018-06-05T23:30:26.999Z,92.60
2018-06-05T23:32:58.598Z,92.90
2018-06-05T23:35:30.295Z,92.70
2018-06-05T23:38:01.616Z,92.80
2018-06-05T23:40:32.977Z,93.00
2018-06-05T23:43:04.379Z,93.10
2018-06-05T23:45:35.903Z,92.90
2018-06-05T23:48:07.233Z,93.20
2018-06-05T23:50:38.833Z,93.20
2018-06-05T23:53:10.236Z,93.20
2018-06-05T23:55:41.584Z,93.40
2018-06-05T23:58:13.107Z,93.60
